Time;durP1;ratioP1;P1;durP2;ratioP2;P2;SDS_P1;SDS_P2;PMS_P1;PMS_P2;Temp;Humidity;BMP_temperature;BMP_pressure;BME280_temperature;BME280_humidity;BME280_pressure;Samples;Min_cycle;Max_cycle;Signal;HPM_P1;HPM_P2
2021/04/27 00:00:22;;;;;;;1.97;1.63;;;;;;;-1.72;93.02;101002.16;4966362;28;20460;-78
2021/04/27 00:02:48;;;;;;;3.43;2.27;;;;;;;-1.92;90.79;100998.13;4964855;28;20241;-78
2021/04/27 00:05:17;;;;;;;4.40;2.33;;;;;;;-1.84;93.60;100994.13;4966407;28;20544;-78
2021/04/27 00:07:44;;;;;;;4.70;2.90;;;;;;;-1.67;96.09;100992.09;4960741;28;20227;-77
2021/04/27 00:10:12;;;;;;;5.80;2.50;;;;;;;-1.56;97.93;100987.28;4959359;28;20462;-78
2021/04/27 00:12:38;;;;;;;6.07;2.40;;;;;;;-1.57;97.73;100988.09;4962190;28;20471;-78
2021/04/27 00:15:07;;;;;;;4.07;2.70;;;;;;;-1.88;95.02;100994.88;4967184;28;20490;-77
2021/04/27 00:17:33;;;;;;;5.73;2.30;;;;;;;-1.82;95.54;100991.63;4970880;28;20450;-77
2021/04/27 00:19:59;;;;;;;4.87;2.20;;;;;;;-1.88;95.54;100989.75;4959142;28;20457;-77
2021/04/27 00:22:26;;;;;;;3.57;2.13;;;;;;;-1.74;97.50;100982.50;4960272;28;20216;-77
2021/04/27 00:24:52;;;;;;;5.00;2.70;;;;;;;-1.94;95.78;100985.28;4966190;28;20470;-78
2021/04/27 00:27:18;;;;;;;3.23;2.40;;;;;;;-1.95;95.59;100985.28;4962831;28;20495;-77
2021/04/27 00:29:44;;;;;;;5.50;2.77;;;;;;;-2.00;95.08;100981.72;4963758;28;20206;-78
2021/04/27 00:32:10;;;;;;;4.30;2.40;;;;;;;-1.84;98.21;100976.22;4963385;28;20214;-78
2021/04/27 00:34:36;;;;;;;3.47;2.27;;;;;;;-2.02;95.98;100981.66;4947102;28;20307;-76
2021/04/27 00:37:02;;;;;;;4.07;2.53;;;;;;;-2.29;92.67;100977.44;4959845;28;20227;-76
2021/04/27 00:39:29;;;;;;;5.00;2.80;;;;;;;-2.05;97.68;100973.03;4956353;28;20458;-76
2021/04/27 00:41:55;;;;;;;3.60;2.57;;;;;;;-2.20;95.36;100974.28;4964299;28;20529;-76
2021/04/27 00:44:21;;;;;;;4.70;2.47;;;;;;;-2.22;95.07;100975.03;4963039;28;20803;-76
2021/04/27 00:46:47;;;;;;;2.83;2.33;;;;;;;-2.22;95.30;100972.50;4964458;28;20457;-76
2021/04/27 00:49:13;;;;;;;7.30;2.30;;;;;;;-2.21;95.96;100967.44;4962887;28;20480;-76
2021/04/27 00:51:40;;;;;;;3.23;2.33;;;;;;;-2.16;97.64;100959.94;4964144;28;20455;-78
2021/04/27 00:54:07;;;;;;;3.87;2.67;;;;;;;-2.28;96.28;100960.41;4963339;28;20781;-78
2021/04/27 00:56:35;;;;;;;3.97;2.20;;;;;;;-2.36;96.06;100965.25;4958989;28;20461;-79
2021/04/27 00:59:01;;;;;;;3.67;2.53;;;;;;;-2.26;97.63;100963.00;4961062;28;20447;-78
2021/04/27 01:01:27;;;;;;;2.93;2.27;;;;;;;-2.38;96.33;100961.78;4963180;28;20455;-78
2021/04/27 01:03:53;;;;;;;4.80;2.53;;;;;;;-2.26;98.21;100955.34;4956867;28;20269;-78
2021/04/27 01:06:19;;;;;;;5.77;2.17;;;;;;;-2.26;98.32;100957.91;4957888;28;20491;-78
2021/04/27 01:08:49;;;;;;;3.80;2.47;;;;;;;-2.40;97.40;100957.47;4959599;28;20486;-76
2021/04/27 01:11:24;;;;;;;4.07;2.50;;;;;;;-2.30;98.13;100954.38;4951483;28;20463;-78
2021/04/27 01:14:01;;;;;;;2.70;2.10;;;;;;;-2.28;99.47;100943.38;4957516;28;20520;-78
2021/04/27 01:16:30;;;;;;;6.43;2.90;;;;;;;-2.28;99.46;100950.19;4957556;28;20475;-78
2021/04/27 01:18:57;;;;;;;4.63;2.37;;;;;;;-2.30;99.12;100944.16;4965109;28;20488;-78
2021/04/27 01:21:26;;;;;;;3.20;2.53;;;;;;;-2.45;97.92;100948.78;4981395;28;20458;-78
2021/04/27 01:24:11;;;;;;;4.80;2.73;;;;;;;-2.35;99.47;100948.25;4969219;28;20468;-78
2021/04/27 01:26:40;;;;;;;3.27;2.50;;;;;;;-2.36;99.71;100938.84;4967085;28;20458;-78
2021/04/27 01:29:08;;;;;;;3.50;2.40;;;;;;;-2.42;98.82;100941.22;4967450;28;20509;-78
2021/04/27 01:31:35;;;;;;;5.10;2.83;;;;;;;-2.49;98.68;100937.59;4958940;28;21001;-78
2021/04/27 01:34:05;;;;;;;6.87;3.23;;;;;;;-2.49;98.90;100935.91;4967205;28;20487;-78
2021/04/27 01:36:33;;;;;;;5.07;3.17;;;;;;;-2.60;98.82;100929.59;4964434;28;20469;-78
2021/04/27 01:38:59;;;;;;;4.87;3.27;;;;;;;-2.67;97.71;100938.75;4962548;28;20507;-78
2021/04/27 01:41:26;;;;;;;6.43;3.20;;;;;;;-2.81;96.79;100939.09;4963911;28;20462;-78
2021/04/27 01:43:53;;;;;;;6.13;2.83;;;;;;;-2.70;97.55;100940.31;4968078;28;20512;-78
2021/04/27 01:46:20;;;;;;;5.13;2.83;;;;;;;-2.74;98.29;100941.06;4984119;28;20553;-78
2021/04/27 01:48:47;;;;;;;4.93;2.70;;;;;;;-2.54;100.00;100929.78;4966176;28;20473;-78
2021/04/27 01:51:16;;;;;;;4.20;2.97;;;;;;;-2.51;100.00;100931.59;4966831;28;20469;-78
2021/04/27 01:53:54;;;;;;;5.73;2.80;;;;;;;-2.75;99.66;100932.50;4966042;28;20476;-78
2021/04/27 01:56:22;;;;;;;4.07;2.50;;;;;;;-2.75;99.58;100924.00;4963321;28;20466;-78
2021/04/27 01:58:49;;;;;;;4.93;2.90;;;;;;;-2.81;98.89;100937.44;4961089;28;20450;-78
2021/04/27 02:01:17;;;;;;;5.47;3.20;;;;;;;-2.69;100.00;100924.16;4976363;28;21128;-78
2021/04/27 02:03:45;;;;;;;6.07;2.87;;;;;;;-2.63;100.00;100921.84;4963826;28;21001;-78
2021/04/27 02:06:27;;;;;;;3.93;2.43;;;;;;;-2.79;100.00;100922.16;4958325;28;20457;-78
2021/04/27 02:09:01;;;;;;;4.43;2.77;;;;;;;-2.65;100.00;100920.94;4965936;28;20473;-78
2021/04/27 02:11:50;;;;;;;4.83;2.90;;;;;;;-2.71;100.00;100921.59;4961897;28;20490;-78
2021/04/27 02:14:17;;;;;;;4.40;2.83;;;;;;;-2.71;100.00;100923.25;4965897;28;20562;-78
2021/04/27 02:16:48;;;;;;;5.87;3.30;;;;;;;-2.94;99.75;100936.13;4962519;28;20480;-78
2021/04/27 02:19:15;;;;;;;4.43;3.00;;;;;;;-2.93;100.00;100924.25;4966692;28;20456;-78
2021/04/27 02:21:54;;;;;;;4.73;3.20;;;;;;;-2.74;100.00;100918.09;4964841;28;20454;-78
2021/04/27 02:24:27;;;;;;;5.47;3.13;;;;;;;-2.97;100.00;100924.94;4965068;28;20480;-78
2021/04/27 02:26:57;;;;;;;4.30;3.07;;;;;;;-2.77;100.00;100918.84;4964218;28;20822;-77
2021/04/27 02:29:30;;;;;;;3.93;3.20;;;;;;;-2.82;100.00;100917.81;4959343;28;20499;-78
2021/04/27 02:31:58;;;;;;;5.67;3.33;;;;;;;-2.91;100.00;100913.28;4965522;28;20486;-78
2021/04/27 02:34:27;;;;;;;5.47;2.93;;;;;;;-3.00;100.00;100917.22;4962550;28;21071;-78
2021/04/27 02:36:56;;;;;;;6.07;3.40;;;;;;;-3.14;100.00;100915.06;4967061;28;20827;-78
2021/04/27 02:39:38;;;;;;;6.17;2.93;;;;;;;-3.34;99.19;100919.47;4958769;28;20536;-78
2021/04/27 02:42:07;;;;;;;5.87;2.70;;;;;;;-3.34;99.41;100916.03;4961248;28;20716;-78
2021/04/27 02:44:52;;;;;;;4.73;3.10;;;;;;;-3.01;100.00;100910.38;4969386;28;20472;-78
2021/04/27 02:47:33;;;;;;;4.97;3.50;;;;;;;-2.99;100.00;100909.63;4966681;28;21024;-78
2021/04/27 02:50:04;;;;;;;4.40;2.70;;;;;;;-3.02;100.00;100909.50;4963447;28;20452;-78
2021/04/27 02:52:30;;;;;;;9.43;3.87;;;;;;;-3.25;100.00;100911.28;4968275;28;20462;-78
2021/04/27 02:55:00;;;;;;;3.97;2.70;;;;;;;-3.35;99.74;100912.63;4964733;28;20885;-78
2021/04/27 02:57:30;;;;;;;4.60;3.27;;;;;;;-3.11;100.00;100910.06;4963550;28;21180;-78
2021/04/27 02:59:56;;;;;;;4.90;3.13;;;;;;;-3.16;100.00;100901.38;4966201;28;20472;-78
2021/04/27 03:02:22;;;;;;;5.93;2.70;;;;;;;-3.05;100.00;100905.16;4971286;28;20946;-78
2021/04/27 03:04:50;;;;;;;5.93;2.93;;;;;;;-3.12;100.00;100910.88;4965007;28;20266;-78
2021/04/27 03:07:21;;;;;;;4.60;3.40;;;;;;;-3.25;100.00;100901.06;4969355;28;20488;-78
2021/04/27 03:09:49;;;;;;;5.00;3.07;;;;;;;-3.34;100.00;100904.19;4966358;28;20507;-78
2021/04/27 03:12:15;;;;;;;5.63;3.30;;;;;;;-3.44;100.00;100909.75;4969110;28;20472;-78
2021/04/27 03:14:42;;;;;;;4.80;3.27;;;;;;;-3.49;100.00;100912.13;4968918;28;20489;-78
2021/04/27 03:17:10;;;;;;;5.80;3.07;;;;;;;-3.42;100.00;100903.03;4968598;28;20507;-78
2021/04/27 03:19:45;;;;;;;6.50;2.63;;;;;;;-3.38;100.00;100909.97;4967476;28;20824;-78
2021/04/27 03:22:18;;;;;;;4.40;2.93;;;;;;;-3.18;100.00;100902.13;4966293;28;20833;-78
2021/04/27 03:24:45;;;;;;;4.53;2.77;;;;;;;-3.09;100.00;100905.88;4964535;28;20504;-78
2021/04/27 03:27:11;;;;;;;5.57;3.20;;;;;;;-3.25;100.00;100901.94;4966288;28;20453;-78
2021/04/27 03:29:54;;;;;;;3.80;2.47;;;;;;;-3.44;100.00;100909.75;4963227;28;20208;-78
2021/04/27 03:32:20;;;;;;;4.97;2.77;;;;;;;-3.40;100.00;100908.19;4970005;28;20490;-78
2021/04/27 03:34:46;;;;;;;4.40;2.77;;;;;;;-3.43;100.00;100914.91;4961447;28;21122;-78
2021/04/27 03:37:13;;;;;;;3.57;2.70;;;;;;;-3.52;100.00;100912.03;4965694;28;20462;-78
2021/04/27 03:39:40;;;;;;;4.23;2.80;;;;;;;-3.38;100.00;100909.97;4968893;28;20453;-78
2021/04/27 03:42:07;;;;;;;3.63;2.63;;;;;;;-3.17;100.00;100906.44;4965094;28;20485;-78
2021/04/27 03:44:34;;;;;;;3.60;3.03;;;;;;;-3.30;100.00;100912.78;4965671;28;20545;-78
2021/04/27 03:47:01;;;;;;;3.93;2.77;;;;;;;-3.47;100.00;100912.19;4963814;28;20720;-78
2021/04/27 03:49:28;;;;;;;4.40;3.10;;;;;;;-3.60;100.00;100913.44;4961463;28;20897;-78
2021/04/27 03:51:54;;;;;;;3.37;2.40;;;;;;;-3.65;100.00;100914.97;4977419;28;20461;-78
2021/04/27 03:54:20;;;;;;;4.07;2.93;;;;;;;-3.64;100.00;100911.56;4979117;28;20497;-78
2021/04/27 03:56:47;;;;;;;7.07;3.03;;;;;;;-3.66;100.00;100914.09;4969107;28;20994;-78
2021/04/27 03:59:14;;;;;;;3.50;2.30;;;;;;;-3.52;100.00;100909.47;4969794;28;20481;-78
2021/04/27 04:01:41;;;;;;;4.63;2.90;;;;;;;-3.42;100.00;100910.69;4972835;28;20483;-78
2021/04/27 04:04:08;;;;;;;5.67;2.70;;;;;;;-3.53;100.00;100914.53;4966512;28;21064;-78
2021/04/27 04:06:35;;;;;;;4.27;2.67;;;;;;;-3.46;100.00;100906.28;4969142;28;20461;-78
2021/04/27 04:09:03;;;;;;;4.83;2.93;;;;;;;-3.35;100.00;100914.31;4970625;28;20968;-78
2021/04/27 04:11:35;;;;;;;4.63;3.43;;;;;;;-3.27;100.00;100912.91;4967312;28;20197;-78
2021/04/27 04:14:06;;;;;;;4.73;3.23;;;;;;;-3.06;100.00;100915.31;4966319;28;20548;-78
2021/04/27 04:16:57;;;;;;;4.00;2.80;;;;;;;-2.93;100.00;100921.72;4968580;28;20969;-78
2021/04/27 04:19:24;;;;;;;6.47;3.67;;;;;;;-2.92;100.00;100916.66;4963504;28;20466;-78
2021/04/27 04:21:59;;;;;;;6.77;3.50;;;;;;;-2.97;100.00;100914.75;4964404;28;20564;-78
2021/04/27 04:24:26;;;;;;;6.27;3.47;;;;;;;-3.09;100.00;100912.66;4965055;28;20513;-78
2021/04/27 04:26:52;;;;;;;5.40;3.83;;;;;;;-2.92;100.00;100921.75;4961100;28;20466;-78
2021/04/27 04:29:37;;;;;;;10.27;5.57;;;;;;;-3.01;97.05;100926.53;4962094;28;21192;-78
2021/04/27 04:32:22;;;;;;;9.73;4.30;;;;;;;-2.95;95.75;100928.44;4965457;28;20524;-78
2021/04/27 04:35:08;;;;;;;7.37;4.63;;;;;;;-2.89;95.83;100928.63;4976607;28;20483;-78
2021/04/27 04:37:53;;;;;;;6.80;4.07;;;;;;;-2.98;93.36;100925.78;4982609;28;20837;-78
2021/04/27 04:40:45;;;;;;;7.13;4.33;;;;;;;-2.68;98.63;100918.25;4971790;28;20479;-76
2021/04/27 04:43:47;;;;;;;7.23;4.37;;;;;;;-2.83;92.95;100926.31;4984612;28;20478;-78
2021/04/27 04:46:32;;;;;;;8.27;4.17;;;;;;;-2.80;92.07;100928.06;4985623;28;20452;-78
2021/04/27 04:49:17;;;;;;;5.77;3.83;;;;;;;-2.31;99.21;100921.97;4985973;28;20852;-78
2021/04/27 04:52:15;;;;;;;8.07;4.20;;;;;;;-2.20;99.22;100929.97;4983785;28;20558;-77
2021/04/27 04:54:53;;;;;;;7.83;4.27;;;;;;;-2.02;100.00;100920.31;4983112;28;20469;-78
2021/04/27 04:57:31;;;;;;;7.00;4.07;;;;;;;-1.97;99.04;100923.88;4980259;28;20473;-78
2021/04/27 04:59:58;;;;;;;8.63;5.13;;;;;;;-2.04;94.51;100932.19;4979846;28;20471;-78
2021/04/27 05:02:25;;;;;;;8.73;5.53;;;;;;;-2.00;93.69;100934.00;4985941;28;20992;-77
2021/04/27 05:05:11;;;;;;;9.00;5.67;;;;;;;-1.86;94.81;100926.75;4978047;28;20447;-78
2021/04/27 05:08:00;;;;;;;9.40;4.87;;;;;;;-1.83;93.48;100931.97;4970394;28;20518;-78
2021/04/27 05:11:04;;;;;;;7.70;4.67;;;;;;;-1.78;91.36;100943.16;4980642;28;20461;-78
2021/04/27 05:13:41;;;;;;;8.07;4.63;;;;;;;-1.61;93.52;100930.00;4978462;28;20513;-78
2021/04/27 05:16:09;;;;;;;9.90;5.23;;;;;;;-1.58;89.49;100938.63;4979699;28;20536;-78
2021/04/27 05:18:37;;;;;;;11.77;6.00;;;;;;;-1.43;90.52;100935.63;4980545;28;20539;-78
2021/04/27 05:21:03;;;;;;;7.37;5.13;;;;;;;-1.35;88.08;100941.84;4979225;28;20970;-78
2021/04/27 05:23:29;;;;;;;9.17;5.37;;;;;;;-1.21;86.84;100946.47;4965150;28;20470;-78
2021/04/27 05:25:56;;;;;;;9.50;5.33;;;;;;;-1.03;86.42;100944.38;4982339;28;20459;-78
2021/04/27 05:28:22;;;;;;;8.67;4.87;;;;;;;-0.83;86.26;100949.16;4979636;28;21191;-77
2021/04/27 05:30:48;;;;;;;8.83;5.23;;;;;;;-0.66;86.10;100945.31;4977633;28;20487;-78
2021/04/27 05:33:14;;;;;;;9.17;5.50;;;;;;;-0.51;81.93;100949.97;4980502;28;20227;-78
2021/04/27 05:35:41;;;;;;;9.50;5.00;;;;;;;-0.22;81.08;100960.88;4973069;28;20261;-78
2021/04/27 05:38:08;;;;;;;8.70;5.17;;;;;;;-0.08;79.75;100962.91;4969195;28;20201;-78
2021/04/27 05:40:34;;;;;;;8.43;5.07;;;;;;;0.10;77.54;100963.31;4974364;28;21112;-78
2021/04/27 05:43:00;;;;;;;7.53;4.50;;;;;;;0.33;76.34;100966.38;4971792;28;20228;-78
2021/04/27 05:45:26;;;;;;;9.20;4.53;;;;;;;0.44;75.85;100965.72;4970319;28;20468;-78
2021/04/27 05:47:52;;;;;;;6.80;4.57;;;;;;;0.60;75.37;100964.34;4973068;28;20515;-78
2021/04/27 05:50:18;;;;;;;9.00;4.97;;;;;;;0.78;73.74;100967.28;4973673;28;20236;-78
2021/04/27 05:52:45;;;;;;;8.60;4.57;;;;;;;0.89;73.38;100968.34;4971972;28;20197;-78
2021/04/27 05:55:11;;;;;;;6.07;3.93;;;;;;;1.09;71.49;100963.59;4974202;28;20197;-78
2021/04/27 05:57:37;;;;;;;6.90;4.40;;;;;;;1.20;71.77;100962.94;4978085;28;20216;-78
2021/04/27 06:00:05;;;;;;;7.83;4.43;;;;;;;1.37;71.49;100970.91;4974503;28;20200;-78
2021/04/27 06:02:39;;;;;;;8.47;4.10;;;;;;;1.58;69.56;100968.69;4972070;28;20192;-78
2021/04/27 06:05:06;;;;;;;7.80;4.90;;;;;;;1.77;68.01;100975.00;4979168;28;20998;-78
2021/04/27 06:07:32;;;;;;;6.43;3.73;;;;;;;1.87;67.67;100974.28;4980457;28;20229;-78
2021/04/27 06:09:59;;;;;;;7.30;4.40;;;;;;;1.97;67.16;100979.56;4972619;28;20565;-78
2021/04/27 06:12:25;;;;;;;5.97;3.80;;;;;;;2.08;67.00;100973.75;4970338;28;20262;-78
2021/04/27 06:14:52;;;;;;;6.83;4.10;;;;;;;2.23;66.10;100983.41;4978035;28;20300;-78
2021/04/27 06:17:18;;;;;;;6.57;4.00;;;;;;;2.31;65.91;100977.50;4974957;28;20270;-78
2021/04/27 06:19:44;;;;;;;6.60;4.00;;;;;;;2.45;66.46;100981.09;4977931;28;20195;-78
2021/04/27 06:22:10;;;;;;;6.73;3.80;;;;;;;2.55;65.29;100974.34;4979630;28;20197;-78
2021/04/27 06:24:36;;;;;;;6.43;4.07;;;;;;;2.71;65.53;100972.81;4978126;28;20707;-78
2021/04/27 06:27:04;;;;;;;8.50;4.20;;;;;;;2.87;63.89;100982.47;4980237;28;20221;-78
2021/04/27 06:29:30;;;;;;;6.93;3.40;;;;;;;2.97;63.37;100980.84;4978535;28;20236;-78
2021/04/27 06:31:55;;;;;;;7.63;3.90;;;;;;;3.07;61.55;100987.81;4979264;28;20214;-76
2021/04/27 06:34:21;;;;;;;9.00;3.93;;;;;;;3.20;63.19;100989.69;4979293;28;20229;-76
2021/04/27 06:36:47;;;;;;;8.07;3.70;;;;;;;3.21;64.66;100981.09;4979018;28;20198;-78
2021/04/27 06:39:13;;;;;;;7.20;4.23;;;;;;;3.37;63.43;100989.81;4986064;28;20195;-78
2021/04/27 06:41:39;;;;;;;9.27;3.90;;;;;;;3.57;63.54;100989.13;4975499;28;20218;-78
2021/04/27 06:44:07;;;;;;;7.40;4.03;;;;;;;3.64;62.80;100984.91;4977254;28;20224;-78
2021/04/27 06:46:33;;;;;;;8.87;4.23;;;;;;;3.69;62.96;100989.25;4976583;28;20687;-78
2021/04/27 06:48:59;;;;;;;8.63;4.60;;;;;;;3.81;62.96;100985.91;4974586;28;20701;-78
2021/04/27 06:51:25;;;;;;;6.67;3.80;;;;;;;3.96;63.32;100977.41;4973445;28;20205;-78
2021/04/27 06:53:51;;;;;;;7.27;4.00;;;;;;;4.05;62.62;100981.78;4975473;28;20948;-78
2021/04/27 06:56:17;;;;;;;6.53;3.53;;;;;;;4.17;59.72;100985.28;4977399;28;20197;-78
2021/04/27 06:58:44;;;;;;;6.80;3.40;;;;;;;4.31;58.54;100987.06;4978594;28;20293;-78
2021/04/27 07:01:10;;;;;;;5.30;3.07;;;;;;;4.35;58.10;100984.53;4981510;28;21013;-78
2021/04/27 07:03:36;;;;;;;5.53;3.20;;;;;;;4.41;58.90;100977.66;4976469;28;20519;-78
2021/04/27 07:06:03;;;;;;;7.17;3.77;;;;;;;4.45;59.02;100981.97;4975065;28;20194;-78
2021/04/27 07:08:30;;;;;;;6.73;3.53;;;;;;;4.63;58.80;100979.50;4974829;28;20230;-76
2021/04/27 07:10:57;;;;;;;8.10;3.90;;;;;;;4.75;57.54;100983.84;4978246;28;20198;-78
2021/04/27 07:13:24;;;;;;;6.60;3.47;;;;;;;4.81;57.53;100981.28;4975041;28;20291;-78
2021/04/27 07:15:50;;;;;;;5.70;3.67;;;;;;;4.91;56.78;100975.28;4976462;28;20198;-78
2021/04/27 07:18:17;;;;;;;6.93;3.20;;;;;;;5.03;56.11;100982.22;4978694;28;20212;-78
2021/04/27 07:20:43;;;;;;;6.10;3.33;;;;;;;5.15;55.01;100985.66;4978083;28;20210;-78
2021/04/27 07:23:09;;;;;;;5.77;3.27;;;;;;;5.32;54.41;100983.97;4978946;28;20221;-78
2021/04/27 07:25:36;;;;;;;8.50;3.57;;;;;;;5.37;55.58;100982.25;4974258;28;20194;-78
2021/04/27 07:28:04;;;;;;;6.67;2.97;;;;;;;5.39;54.87;100979.69;4978364;28;20221;-78
2021/04/27 07:30:31;;;;;;;6.00;3.33;;;;;;;5.58;54.15;100983.13;4977407;28;20720;-80
2021/04/27 07:32:57;;;;;;;6.67;3.80;;;;;;;5.71;53.36;100978.81;4977699;28;20251;-79
2021/04/27 07:35:24;;;;;;;8.07;3.60;;;;;;;5.78;53.41;100978.81;4976048;28;20606;-78
2021/04/27 07:37:50;;;;;;;5.90;3.77;;;;;;;5.95;52.66;100985.72;4977333;28;20233;-78
2021/04/27 07:40:16;;;;;;;5.53;3.60;;;;;;;6.05;53.57;100985.72;4980004;28;20780;-78
2021/04/27 07:42:43;;;;;;;3.73;2.87;;;;;;;6.18;50.07;100989.13;4975790;28;20206;-78
2021/04/27 07:45:11;;;;;;;6.07;2.80;;;;;;;6.13;50.41;100990.00;4979109;28;20697;-78
2021/04/27 07:47:37;;;;;;;4.23;2.80;;;;;;;6.29;51.41;100978.75;4976388;28;20218;-76
2021/04/27 07:50:04;;;;;;;5.10;3.00;;;;;;;6.42;49.33;100984.75;4975589;28;20230;-76
2021/04/27 07:52:31;;;;;;;5.27;3.10;;;;;;;6.48;49.30;100984.72;4977528;28;20206;-76
2021/04/27 07:54:57;;;;;;;4.43;2.93;;;;;;;6.52;51.12;100970.88;4980621;28;20814;-76
2021/04/27 07:57:23;;;;;;;5.17;2.93;;;;;;;6.51;51.74;100971.78;4981003;28;20198;-76
2021/04/27 07:59:49;;;;;;;5.50;3.63;;;;;;;6.70;48.98;100977.75;4976212;28;20509;-76
2021/04/27 08:02:15;;;;;;;5.03;3.07;;;;;;;6.86;47.66;100980.25;4978822;28;20232;-76
2021/04/27 08:04:41;;;;;;;3.93;2.40;;;;;;;6.94;50.48;100968.13;4974405;28;20225;-76
2021/04/27 08:07:07;;;;;;;5.57;3.03;;;;;;;7.05;47.71;100975.81;4977255;28;20287;-76
2021/04/27 08:09:34;;;;;;;5.43;2.73;;;;;;;7.09;45.43;100973.22;4976655;28;20246;-76
2021/04/27 08:12:00;;;;;;;3.50;2.60;;;;;;;7.17;45.20;100978.34;4980055;28;20205;-76
2021/04/27 08:14:26;;;;;;;4.47;2.53;;;;;;;7.19;47.64;100974.88;4977334;28;20556;-76
2021/04/27 08:16:52;;;;;;;4.37;2.60;;;;;;;7.50;47.34;100976.38;4983584;28;20201;-76
2021/04/27 08:19:18;;;;;;;7.53;2.87;;;;;;;7.57;49.78;100959.91;4975887;28;20326;-76
2021/04/27 08:21:44;;;;;;;3.73;2.57;;;;;;;7.73;44.63;100973.59;4973463;28;20207;-76
2021/04/27 08:24:10;;;;;;;4.43;2.60;;;;;;;7.74;46.46;100964.94;4977588;28;20331;-76
2021/04/27 08:26:37;;;;;;;3.77;2.63;;;;;;;7.79;46.13;100970.94;4974264;28;20217;-76
2021/04/27 08:29:04;;;;;;;3.60;2.40;;;;;;;7.77;45.70;100967.50;4973373;28;20213;-76
2021/04/27 08:31:30;;;;;;;3.40;2.10;;;;;;;7.95;44.67;100961.28;4976467;28;20201;-76
2021/04/27 08:33:56;;;;;;;4.60;2.50;;;;;;;8.02;43.00;100965.53;4979264;28;20243;-76
2021/04/27 08:36:22;;;;;;;3.50;2.00;;;;;;;8.02;41.67;100972.44;4973219;28;20249;-76
2021/04/27 08:38:48;;;;;;;3.07;2.30;;;;;;;8.15;44.16;100961.06;4975521;28;20193;-76
2021/04/27 08:41:14;;;;;;;3.97;2.30;;;;;;;8.24;41.39;100966.16;4971992;28;20229;-77
2021/04/27 08:43:41;;;;;;;4.00;2.13;;;;;;;8.21;40.40;100967.94;4974705;28;20312;-76
2021/04/27 08:46:08;;;;;;;4.47;2.03;;;;;;;8.33;43.23;100957.41;4976756;28;20221;-76
2021/04/27 08:48:34;;;;;;;3.43;2.50;;;;;;;8.42;42.06;100962.53;4973708;28;20221;-76
2021/04/27 08:51:00;;;;;;;3.10;2.00;;;;;;;8.58;45.76;100950.19;4973602;28;20217;-76
2021/04/27 08:53:26;;;;;;;3.07;2.30;;;;;;;8.58;39.26;100964.94;4980250;28;20307;-76
2021/04/27 08:55:52;;;;;;;4.13;2.50;;;;;;;8.69;43.63;100945.75;4979026;28;20194;-76
2021/04/27 08:58:18;;;;;;;2.67;2.27;;;;;;;8.78;41.52;100952.56;4979658;28;20280;-76
2021/04/27 09:00:46;;;;;;;4.10;2.50;;;;;;;8.88;42.94;100943.75;4976375;28;20281;-76
2021/04/27 09:03:13;;;;;;;2.97;2.20;;;;;;;8.91;39.96;100941.09;4976160;28;20808;-76
2021/04/27 09:05:41;;;;;;;5.23;2.63;;;;;;;8.76;39.29;100946.53;4973829;28;20620;-76
2021/04/27 09:08:07;;;;;;;3.90;2.20;;;;;;;8.84;39.75;100949.00;4972386;28;20240;-76
2021/04/27 09:10:39;;;;;;;3.83;2.10;;;;;;;8.79;38.75;100938.66;4973620;28;20224;-76
2021/04/27 09:13:10;;;;;;;4.73;2.73;;;;;;;8.81;38.31;100946.44;4974793;28;20232;-75
2021/04/27 09:15:41;;;;;;;4.17;2.20;;;;;;;8.82;38.72;100929.97;4977291;28;20205;-76
2021/04/27 09:18:27;;;;;;;3.37;2.60;;;;;;;8.90;38.82;100934.19;4975479;28;20206;-76
2021/04/27 09:20:56;;;;;;;4.13;2.30;;;;;;;8.97;37.98;100936.69;4979709;28;20196;-76
2021/04/27 09:23:22;;;;;;;3.17;2.13;;;;;;;8.98;38.79;100928.00;4972932;28;20213;-76
2021/04/27 09:26:13;;;;;;;5.10;2.50;;;;;;;9.03;38.36;100928.81;4970712;28;20197;-76
2021/04/27 09:28:40;;;;;;;4.73;2.43;;;;;;;9.12;41.21;100913.06;4975195;28;20729;-77
2021/04/27 09:31:29;;;;;;;3.43;2.57;;;;;;;9.25;39.24;100917.19;4976650;28;20201;-76
2021/04/27 09:34:17;;;;;;;3.77;2.60;;;;;;;9.05;39.13;100908.81;4977429;28;20291;-76
2021/04/27 09:36:43;;;;;;;3.30;2.77;;;;;;;9.04;38.48;100907.09;4977597;28;20206;-76
2021/04/27 09:39:09;;;;;;;3.87;2.23;;;;;;;9.20;39.10;100902.50;4980080;28;20692;-76
2021/04/27 09:41:35;;;;;;;2.77;2.07;;;;;;;9.47;40.15;100906.41;4975834;28;20213;-77
2021/04/27 09:44:02;;;;;;;3.27;2.00;;;;;;;9.51;38.00;100907.22;4975480;28;20272;-76
2021/04/27 09:46:28;;;;;;;3.47;2.03;;;;;;;9.63;40.52;100894.00;4971558;28;20198;-76
2021/04/27 09:48:55;;;;;;;3.50;2.03;;;;;;;9.73;39.50;100889.50;4976414;28;20730;-76
2021/04/27 09:51:26;;;;;;;3.27;1.83;;;;;;;9.76;37.56;100894.63;4973930;28;20205;-76
2021/04/27 09:53:54;;;;;;;3.37;2.20;;;;;;;9.86;39.94;100889.19;4971325;28;20264;-76
2021/04/27 09:56:35;;;;;;;3.87;2.67;;;;;;;10.17;40.78;100888.63;4976589;28;20566;-77
2021/04/27 09:59:04;;;;;;;4.80;2.60;;;;;;;10.17;36.06;100892.97;4974797;28;20200;-77
2021/04/27 10:01:30;;;;;;;4.47;2.47;;;;;;;10.00;37.27;100891.56;4968391;28;20218;-77
2021/04/27 10:03:56;;;;;;;4.57;1.73;;;;;;;10.04;35.39;100890.63;4978968;28;20227;-77
2021/04/27 10:06:24;;;;;;;2.43;1.77;;;;;;;9.91;34.66;100893.50;4974739;28;20213;-77
2021/04/27 10:08:50;;;;;;;3.83;1.80;;;;;;;9.95;37.30;100875.16;4964185;28;20218;-77
2021/04/27 10:11:17;;;;;;;2.13;1.67;;;;;;;10.02;36.88;100887.16;4975529;28;20209;-77
2021/04/27 10:13:43;;;;;;;2.60;1.60;;;;;;;10.05;34.74;100881.91;4973808;28;20215;-76
2021/04/27 10:16:09;;;;;;;2.77;1.60;;;;;;;10.28;35.66;100877.13;4993520;28;20207;-76
2021/04/27 10:18:35;;;;;;;3.93;1.60;;;;;;;10.29;34.67;100877.09;4970909;28;20202;-77
2021/04/27 10:21:04;;;;;;;3.90;1.90;;;;;;;10.22;34.40;100870.31;4979239;28;20261;-76
2021/04/27 10:23:32;;;;;;;3.23;1.93;;;;;;;10.22;34.03;100862.47;4980798;28;20243;-77
2021/04/27 10:25:59;;;;;;;2.27;1.80;;;;;;;10.23;33.30;100872.84;4983538;28;20788;-77
2021/04/27 10:29:06;;;;;;;4.20;1.50;;;;;;;10.19;34.91;100860.78;4979420;28;20418;-77
2021/04/27 10:31:35;;;;;;;3.23;1.70;;;;;;;10.50;35.67;100854.06;4972414;28;20227;-76
2021/04/27 10:34:05;;;;;;;3.27;2.07;;;;;;;10.49;33.17;100849.78;4969708;28;20240;-77
2021/04/27 10:36:32;;;;;;;2.37;1.67;;;;;;;10.51;34.04;100845.38;4969060;28;20207;-76
2021/04/27 10:39:00;;;;;;;4.50;1.80;;;;;;;10.66;33.69;100845.03;4968556;28;20194;-77
2021/04/27 10:41:45;;;;;;;1.97;1.57;;;;;;;10.60;34.92;100834.72;4967852;28;20291;-76
2021/04/27 10:44:11;;;;;;;3.67;1.80;;;;;;;10.74;35.04;100837.03;4972064;28;20303;-77
2021/04/27 10:46:48;;;;;;;4.33;1.90;;;;;;;10.81;34.28;100835.97;4969103;28;20199;-76
2021/04/27 10:49:35;;;;;;;2.70;1.63;;;;;;;10.86;33.38;100823.69;4967095;28;20270;-77
2021/04/27 10:52:03;;;;;;;2.70;1.70;;;;;;;10.88;35.78;100815.84;4972486;28;20201;-77
2021/04/27 10:54:33;;;;;;;2.13;1.43;;;;;;;11.11;35.33;100817.88;4970672;28;20224;-76
2021/04/27 10:57:17;;;;;;;3.20;1.70;;;;;;;11.21;34.84;100813.28;4971891;28;20285;-76
2021/04/27 10:59:52;;;;;;;3.73;2.00;;;;;;;11.29;37.00;100809.59;4977980;28;20205;-77
2021/04/27 11:02:23;;;;;;;2.70;1.77;;;;;;;11.35;35.72;100803.34;4972034;28;20902;-76
2021/04/27 11:04:50;;;;;;;2.53;1.83;;;;;;;11.25;34.21;100807.09;4973629;28;20237;-77
2021/04/27 11:07:37;;;;;;;3.67;2.00;;;;;;;11.26;32.77;100804.44;4975546;28;20263;-77
2021/04/27 11:10:33;;;;;;;2.20;1.77;;;;;;;11.23;31.19;100801.91;4972914;28;20682;-76
2021/04/27 11:13:10;;;;;;;4.13;2.10;;;;;;;10.98;31.75;100799.91;4978869;28;20224;-76
2021/04/27 11:15:37;;;;;;;4.87;2.00;;;;;;;10.95;32.87;100788.69;4974934;28;20209;-76
2021/04/27 11:18:11;;;;;;;2.97;2.00;;;;;;;11.12;33.42;100794.34;4974568;28;20295;-76
2021/04/27 11:20:53;;;;;;;5.87;2.20;;;;;;;11.16;33.67;100789.91;4973777;28;20205;-77
2021/04/27 11:23:40;;;;;;;3.10;2.10;;;;;;;11.27;32.93;100779.19;4972060;28;20217;-76
2021/04/27 11:26:52;;;;;;;3.93;2.03;;;;;;;11.21;33.36;100774.13;4973854;28;20205;-76
2021/04/27 11:29:27;;;;;;;3.13;2.00;;;;;;;11.23;32.26;100770.56;4975475;28;20883;-76
2021/04/27 11:32:10;;;;;;;2.80;1.90;;;;;;;11.40;36.04;100767.53;4974595;28;21000;-76
2021/04/27 11:34:58;;;;;;;2.73;1.97;;;;;;;11.68;35.79;100756.28;4972721;28;20226;-76
2021/04/27 11:37:26;;;;;;;2.50;1.93;;;;;;;11.75;34.58;100756.09;4973955;28;20202;-77
2021/04/27 11:39:53;;;;;;;3.83;2.00;;;;;;;11.85;34.61;100758.41;4978284;28;20204;-76